Time;durP1;ratioP1;P1;durP2;ratioP2;P2;SDS_P1;SDS_P2;PMS_P1;PMS_P2;Temp;Humidity;BMP_temperature;BMP_pressure;BME280_temperature;BME280_humidity;BME280_pressure;Samples;Min_cycle;Max_cycle;Signal;HPM_P1;HPM_P2
2023/02/28 00:08:34;;;;;;;21.23;3.75;;;;;;;-0.41;84.84;101204.81;20726201;28;20054;-72
2023/02/28 00:18:36;;;;;;;6.35;3.10;;;;;;;-0.40;84.50;101196.25;20746285;28;20064;-72
2023/02/28 00:28:37;;;;;;;6.75;3.50;;;;;;;-0.39;84.16;101198.00;20706402;28;20056;-70
2023/02/28 00:38:38;;;;;;;8.98;3.70;;;;;;;-0.46;83.85;101210.59;20719191;28;20429;-74
2023/02/28 00:48:40;;;;;;;8.40;3.42;;;;;;;-0.54;84.04;101210.25;20742578;28;20054;-72
2023/02/28 00:58:41;;;;;;;8.07;3.25;;;;;;;-0.51;83.23;101202.66;20732303;28;20156;-72
2023/02/28 01:08:42;;;;;;;6.20;2.88;;;;;;;-0.43;81.33;101206.44;20709869;28;20498;-72
2023/02/28 01:18:44;;;;;;;6.78;2.80;;;;;;;-0.41;81.21;101197.09;20724441;28;20049;-73
2023/02/28 01:28:45;;;;;;;5.55;2.70;;;;;;;-0.41;81.01;101199.66;20734456;28;20061;-73
2023/02/28 01:38:46;;;;;;;5.72;2.88;;;;;;;-0.44;81.41;101198.66;20732269;28;20151;-72
2023/02/28 01:48:47;;;;;;;9.02;4.82;;;;;;;-0.80;84.41;101198.88;20703373;28;20046;-73
2023/02/28 01:58:49;;;;;;;8.20;3.28;;;;;;;-1.15;89.73;101197.31;20726473;28;20498;-76
2023/02/28 02:08:50;;;;;;;7.65;3.90;;;;;;;-1.33;94.07;101185.44;20747937;28;20101;-72
2023/02/28 02:18:51;;;;;;;7.57;3.13;;;;;;;-1.52;97.04;101181.97;20733983;28;20900;-75
2023/02/28 02:28:53;;;;;;;6.68;3.30;;;;;;;-1.67;99.78;101188.16;20737427;28;20046;-72
2023/02/28 02:38:54;;;;;;;10.70;3.55;;;;;;;-1.75;100.00;101183.47;20748418;28;20153;-73
2023/02/28 02:48:55;;;;;;;8.13;3.63;;;;;;;-1.81;100.00;101179.81;20752373;28;20108;-72
2023/02/28 02:58:56;;;;;;;6.95;3.05;;;;;;;-1.92;100.00;101180.97;20721301;28;20046;-72
2023/02/28 03:08:58;;;;;;;7.22;3.60;;;;;;;-1.99;100.00;101183.19;20724853;28;20050;-72
2023/02/28 03:18:59;;;;;;;7.47;3.65;;;;;;;-2.11;100.00;101180.91;20739886;28;20046;-72
2023/02/28 03:29:00;;;;;;;10.07;3.80;;;;;;;-2.00;100.00;101182.31;20746943;28;20103;-73
2023/02/28 03:39:02;;;;;;;7.10;3.72;;;;;;;-1.98;100.00;101178.13;20707997;28;20049;-73
2023/02/28 03:49:03;;;;;;;11.73;4.30;;;;;;;-2.07;100.00;101175.13;20715470;28;20544;-72
2023/02/28 03:59:05;;;;;;;8.23;4.50;;;;;;;-2.04;100.00;101167.59;20746794;28;20384;-73
2023/02/28 04:09:06;;;;;;;10.93;5.10;;;;;;;-1.98;100.00;101180.69;20742962;28;20108;-71
2023/02/28 04:19:07;;;;;;;9.55;4.88;;;;;;;-1.93;100.00;101174.09;20708317;28;20049;-71
2023/02/28 04:29:09;;;;;;;13.55;5.50;;;;;;;-1.88;100.00;101182.88;20723550;28;20429;-72
2023/02/28 04:39:10;;;;;;;10.63;5.22;;;;;;;-1.91;100.00;101175.06;20744013;28;20042;-71
2023/02/28 04:49:11;;;;;;;15.45;6.13;;;;;;;-1.92;100.00;101170.72;20732238;28;20535;-73
2023/02/28 04:59:13;;;;;;;12.02;5.72;;;;;;;-1.77;100.00;101177.38;20706313;28;20049;-73
2023/02/28 05:09:14;;;;;;;13.82;5.93;;;;;;;-1.75;100.00;101183.47;20726869;28;20057;-73
2023/02/28 05:19:15;;;;;;;10.65;6.00;;;;;;;-1.74;100.00;101187.78;20738309;28;20093;-73
2023/02/28 05:29:17;;;;;;;14.70;6.00;;;;;;;-1.64;100.00;101197.66;20721069;28;20144;-74
2023/02/28 05:39:18;;;;;;;15.90;7.47;;;;;;;-1.56;100.00;101196.34;20710243;28;20046;-73
2023/02/28 05:49:19;;;;;;;15.65;6.88;;;;;;;-1.30;100.00;101200.06;20739404;28;20042;-73
2023/02/28 05:59:21;;;;;;;12.15;6.45;;;;;;;-1.11;100.00;101204.34;20757637;28;20589;-73
2023/02/28 06:09:22;;;;;;;13.35;6.10;;;;;;;-1.02;100.00;101209.03;20729096;28;20505;-72
2023/02/28 06:19:25;;;;;;;13.23;5.85;;;;;;;-1.07;100.00;101208.81;20726133;28;20569;-72
2023/02/28 06:29:26;;;;;;;18.02;7.20;;;;;;;-1.05;100.00;101202.94;20741520;28;20050;-73
2023/02/28 06:39:27;;;;;;;16.38;7.43;;;;;;;-1.01;100.00;101219.34;20757194;28;20091;-68
2023/02/28 06:49:29;;;;;;;14.77;6.78;;;;;;;-0.86;100.00;101220.06;20714563;28;20100;-70
2023/02/28 06:59:30;;;;;;;12.75;6.30;;;;;;;-0.93;100.00;101232.56;20730827;28;20050;-70
2023/02/28 07:09:31;;;;;;;13.10;6.70;;;;;;;-0.81;100.00;101236.56;20749352;28;20100;-72
2023/02/28 07:30:16;;;;;;;14.02;6.93;;;;;;;-0.68;100.00;101261.09;20700578;28;20402;-79
2023/02/28 07:40:18;;;;;;;12.18;6.82;;;;;;;-0.60;100.00;101253.72;20701273;28;20664;-79
2023/02/28 07:50:19;;;;;;;13.77;6.65;;;;;;;-0.66;100.00;101271.47;20695613;28;20052;-81
2023/02/28 08:00:21;;;;;;;15.40;7.30;;;;;;;-0.46;99.55;101257.75;20707411;28;20042;-81
2023/02/28 08:10:23;;;;;;;14.18;7.18;;;;;;;-0.19;98.74;101268.34;20673573;28;20494;-80
2023/02/28 08:20:24;;;;;;;16.20;7.05;;;;;;;-0.08;96.81;101271.34;20725986;28;20054;-80
2023/02/28 08:30:26;;;;;;;15.82;7.63;;;;;;;-0.07;97.28;101263.69;20716598;28;20152;-81
2023/02/28 08:40:27;;;;;;;16.90;8.50;;;;;;;0.20;95.49;101275.94;20740133;28;20414;-80
2023/02/28 08:50:28;;;;;;;15.40;7.55;;;;;;;0.23;93.77;101283.75;20715691;28;20051;-81
2023/02/28 09:00:30;;;;;;;13.93;7.55;;;;;;;0.48;91.23;101290.78;20712723;28;20104;-80
2023/02/28 09:10:31;;;;;;;16.77;7.35;;;;;;;1.03;86.50;101287.72;20716691;28;20387;-79
2023/02/28 09:20:32;;;;;;;14.95;7.45;;;;;;;1.09;86.11;101272.47;20725231;28;20434;-80
2023/02/28 09:30:34;;;;;;;16.48;8.70;;;;;;;1.24;83.64;101273.00;20741384;28;20335;-79
2023/02/28 09:40:35;;;;;;;15.23;8.10;;;;;;;1.19;82.44;101269.41;20738938;28;20088;-80
2023/02/28 09:50:36;;;;;;;14.63;8.18;;;;;;;1.45;81.23;101261.72;20740886;28;20108;-80
2023/02/28 10:00:38;;;;;;;16.52;8.50;;;;;;;1.48;81.02;101266.97;20729056;28;20053;-81
2023/02/28 10:10:39;;;;;;;15.00;8.10;;;;;;;1.42;80.67;101261.59;20740791;28;20100;-80
2023/02/28 10:20:40;;;;;;;14.18;8.05;;;;;;;1.59;78.53;101260.50;20744761;28;20061;-81
2023/02/28 10:30:42;;;;;;;15.68;7.80;;;;;;;2.01;76.73;101266.22;20761959;28;20049;-79
2023/02/28 10:40:43;;;;;;;15.20;7.97;;;;;;;2.52;72.55;101260.06;20733086;28;20092;-80
2023/02/28 10:50:45;;;;;;;14.57;7.97;;;;;;;3.00;72.29;101254.59;20736115;28;20110;-80
2023/02/28 11:00:46;;;;;;;16.60;8.70;;;;;;;3.37;68.96;101258.22;20744684;28;20467;-80
2023/02/28 11:10:47;;;;;;;19.15;8.85;;;;;;;3.77;64.81;101248.06;20761476;28;20088;-81
2023/02/28 11:20:49;;;;;;;17.48;9.25;;;;;;;3.13;69.07;101256.69;20740273;28;20112;-82
2023/02/28 11:30:50;;;;;;;16.77;9.27;;;;;;;3.87;67.51;101236.22;20747531;28;20516;-81
2023/02/28 11:40:53;;;;;;;16.52;8.60;;;;;;;3.64;64.88;101234.75;20739721;28;20046;-80
2023/02/28 11:50:54;;;;;;;17.70;8.82;;;;;;;3.67;64.26;101233.13;20748081;28;20045;-80
2023/02/28 12:00:55;;;;;;;15.18;9.02;;;;;;;4.28;65.07;101221.66;20728586;28;20062;-81
2023/02/28 12:10:56;;;;;;;15.82;8.70;;;;;;;3.65;65.83;101232.22;20752593;28;20076;-81
2023/02/28 12:20:59;;;;;;;15.10;8.80;;;;;;;3.68;64.26;101227.09;20731719;28;20042;-80
2023/02/28 12:31:00;;;;;;;19.67;10.00;;;;;;;3.50;67.27;101213.72;20713709;28;20046;-81
2023/02/28 12:41:02;;;;;;;25.83;9.75;;;;;;;3.94;63.35;101213.94;20705803;28;20465;-79
2023/02/28 12:51:03;;;;;;;16.20;9.15;;;;;;;4.63;62.82;101193.03;20742582;23;20636;-74
2023/02/28 13:01:04;;;;;;;19.02;10.30;;;;;;;4.69;59.49;101192.28;20698798;28;20054;-74
2023/02/28 13:11:06;;;;;;;17.75;9.52;;;;;;;4.69;58.71;101185.38;20678300;28;20517;-73
2023/02/28 13:21:19;;;;;;;24.75;11.77;;;;;;;4.72;59.58;101182.84;20683314;28;20125;-73
2023/02/28 13:31:21;;;;;;;21.35;10.35;;;;;;;4.46;60.35;101194.41;20717514;28;20100;-72
2023/02/28 13:41:22;;;;;;;18.13;9.43;;;;;;;4.28;60.22;101181.91;20719042;28;20054;-73
2023/02/28 13:51:23;;;;;;;17.70;10.52;;;;;;;4.38;61.40;101197.69;20683672;28;20453;-73
2023/02/28 14:01:25;;;;;;;17.77;10.65;;;;;;;4.45;60.06;101187.44;20714249;23;20096;-71
2023/02/28 14:11:26;;;;;;;19.92;10.63;;;;;;;4.32;62.04;101196.69;20698689;28;20046;-72
2023/02/28 14:21:28;;;;;;;18.13;10.60;;;;;;;4.67;61.38;101189.66;20703573;28;20137;-70
2023/02/28 14:31:30;;;;;;;18.25;10.98;;;;;;;4.66;60.96;101193.13;20682885;28;20048;-70
2023/02/28 14:41:32;;;;;;;18.75;10.77;;;;;;;4.75;59.71;101188.13;20687471;28;20054;-70
2023/02/28 14:51:33;;;;;;;17.70;10.45;;;;;;;4.62;59.16;101191.28;20699752;28;20058;-70
2023/02/28 15:01:34;;;;;;;19.85;9.90;;;;;;;4.74;59.92;101175.09;20696245;28;20064;-69
2023/02/28 15:11:36;;;;;;;21.40;11.32;;;;;;;4.65;59.46;101170.63;20687663;28;20108;-69
2023/02/28 15:21:37;;;;;;;18.20;10.68;;;;;;;4.50;59.68;101185.84;20687670;28;20046;-68
2023/02/28 15:31:39;;;;;;;18.27;10.85;;;;;;;4.57;59.97;101177.34;20694277;28;20058;-69
2023/02/28 15:41:57;;;;;;;17.70;10.85;;;;;;;4.53;60.24;101180.72;20690643;28;20042;-67
2023/02/28 15:51:58;;;;;;;19.00;11.70;;;;;;;4.35;61.33;101183.78;20684641;28;20111;-69
2023/02/28 16:02:00;;;;;;;18.05;10.77;;;;;;;4.29;61.33;101176.75;20686879;28;20142;-69
2023/02/28 16:12:01;;;;;;;18.23;9.95;;;;;;;4.14;62.50;101179.00;20697610;28;20042;-69
2023/02/28 16:22:02;;;;;;;19.33;11.05;;;;;;;3.95;62.67;101189.78;20685494;28;20037;-69
2023/02/28 16:32:04;;;;;;;20.80;11.70;;;;;;;3.71;63.79;101196.13;20678663;28;20129;-69
2023/02/28 16:42:06;;;;;;;22.05;12.07;;;;;;;3.68;64.61;101210.69;20684791;28;20078;-68
2023/02/28 16:52:08;;;;;;;18.85;11.50;;;;;;;3.51;65.05;101218.03;20698824;28;20504;-68
2023/02/28 17:02:10;;;;;;;20.50;11.50;;;;;;;3.41;66.89;101221.22;20679185;28;20046;-68
2023/02/28 17:12:11;;;;;;;22.27;11.70;;;;;;;3.24;66.65;101232.00;20678064;28;20133;-68
2023/02/28 17:22:12;;;;;;;24.00;11.73;;;;;;;3.11;67.47;101227.31;20685236;28;20045;-69
2023/02/28 17:32:14;;;;;;;22.70;12.52;;;;;;;3.00;68.28;101254.59;20692663;28;20097;-69
2023/02/28 17:42:21;;;;;;;21.85;11.32;;;;;;;2.79;69.10;101263.50;20683799;28;20079;-69
2023/02/28 17:52:23;;;;;;;26.23;12.80;;;;;;;2.65;70.29;101256.16;20691843;28;20050;-68
2023/02/28 18:02:24;;;;;;;21.40;11.65;;;;;;;2.56;70.09;101265.38;20700515;28;20054;-69
2023/02/28 18:12:26;;;;;;;22.20;11.57;;;;;;;2.39;72.14;101263.09;20701034;28;20056;-68
2023/02/28 18:22:27;;;;;;;24.25;14.20;;;;;;;2.06;75.26;101258.63;20687528;28;20053;-70
2023/02/28 18:32:28;;;;;;;21.88;12.52;;;;;;;1.93;76.00;101266.81;20689806;28;20046;-69
2023/02/28 18:42:30;;;;;;;24.17;13.35;;;;;;;1.80;76.86;101271.53;20686150;28;20050;-67
2023/02/28 18:52:31;;;;;;;25.45;12.15;;;;;;;1.76;76.70;101267.09;20685626;28;20595;-69
2023/02/28 19:02:33;;;;;;;22.58;12.70;;;;;;;1.66;77.36;101272.78;20669563;28;20056;-67
2023/02/28 19:12:34;;;;;;;23.45;11.68;;;;;;;1.53;77.61;101270.59;20683382;28;20100;-68
2023/02/28 19:22:36;;;;;;;34.75;16.38;;;;;;;1.47;78.07;101270.38;20699770;28;20054;-69
2023/02/28 19:32:37;;;;;;;26.40;12.80;;;;;;;1.34;78.60;101275.94;20687798;28;20442;-68
2023/02/28 19:42:39;;;;;;;23.52;11.57;;;;;;;1.27;78.77;101273.13;20677584;28;20487;-69
2023/02/28 19:52:42;;;;;;;25.02;13.25;;;;;;;1.17;79.92;101259.88;20685135;28;20099;-70
2023/02/28 20:02:43;;;;;;;21.35;11.23;;;;;;;1.19;80.10;101268.53;20715565;23;20054;-69
2023/02/28 20:12:44;;;;;;;19.65;10.10;;;;;;;1.14;79.88;101268.34;20675726;28;21122;-70
2023/02/28 20:22:46;;;;;;;25.20;12.48;;;;;;;1.18;79.30;101262.47;20675421;28;20086;-69
2023/02/28 20:32:47;;;;;;;20.08;10.65;;;;;;;1.10;80.09;101261.31;20687625;28;20561;-68
2023/02/28 20:42:48;;;;;;;22.90;11.80;;;;;;;1.05;80.81;101254.25;20686328;28;20064;-69
2023/02/28 20:52:50;;;;;;;26.17;11.95;;;;;;;0.96;81.16;101249.66;20674871;28;20050;-68
2023/02/28 21:02:51;;;;;;;31.40;13.52;;;;;;;0.92;81.56;101265.84;20681433;28;20108;-68
2023/02/28 21:12:56;;;;;;;24.83;11.57;;;;;;;0.77;82.22;101259.28;20693373;28;20387;-65
2023/02/28 21:22:57;;;;;;;22.70;11.70;;;;;;;0.61;83.89;101250.91;20707130;28;20054;-66
2023/02/28 21:32:59;;;;;;;25.92;13.32;;;;;;;0.48;84.65;101259.88;20693831;28;20691;-66
2023/02/28 21:43:01;;;;;;;27.55;13.40;;;;;;;0.25;86.39;101259.84;20700066;28;20068;-66
2023/02/28 21:53:02;;;;;;;22.92;11.80;;;;;;;0.12;87.19;101260.16;20703837;28;20054;-66
2023/02/28 22:03:03;;;;;;;25.83;12.20;;;;;;;-0.04;88.49;101265.53;20698860;28;20041;-66
2023/02/28 22:13:05;;;;;;;22.08;11.73;;;;;;;-0.14;88.62;101256.53;20690111;28;20497;-66
2023/02/28 22:23:06;;;;;;;28.58;14.02;;;;;;;-0.28;89.89;101266.25;20696190;28;20062;-66
2023/02/28 22:33:07;;;;;;;24.90;12.10;;;;;;;-0.36;90.98;101259.91;20703228;28;20145;-66
2023/02/28 22:43:09;;;;;;;27.17;13.68;;;;;;;-0.59;93.04;101260.63;20689073;28;20049;-65
2023/02/28 22:53:10;;;;;;;31.27;14.85;;;;;;;-0.61;93.01;101252.84;20687508;28;20078;-66
2023/02/28 23:03:11;;;;;;;27.65;12.57;;;;;;;-0.73;93.85;101259.13;20693205;28;20050;-65
2023/02/28 23:13:12;;;;;;;26.08;11.88;;;;;;;-0.82;94.46;101257.03;20702830;28;20057;-66
2023/02/28 23:23:14;;;;;;;38.33;17.27;;;;;;;-1.01;96.80;101269.88;20684836;28;20077;-65
2023/02/28 23:33:15;;;;;;;58.47;21.10;;;;;;;-1.13;98.61;101275.38;20685785;28;20054;-66
2023/02/28 23:43:17;;;;;;;27.40;13.60;;;;;;;-1.26;100.00;101275.59;20692617;28;20054;-65
2023/02/28 23:53:18;;;;;;;28.80;11.93;;;;;;;-1.23;99.79;101273.19;20696147;28;20517;-65
